createdAt,value
2023-05-19T00:01:50.757Z,101049.91
2023-05-19T00:04:19.210Z,101049.75
2023-05-19T00:06:51.296Z,101046.78
2023-05-19T00:09:19.597Z,101046.19
2023-05-19T00:11:47.854Z,101047.16
2023-05-19T00:14:16.288Z,101038.63
2023-05-19T00:16:44.603Z,101043.78
2023-05-19T00:19:12.698Z,101043.97
2023-05-19T00:21:40.728Z,101035.72
2023-05-19T00:24:08.838Z,101030.91
2023-05-19T00:26:37.397Z,101033.09
2023-05-19T00:29:06.511Z,101029.38
2023-05-19T00:31:34.685Z,101023.94
2023-05-19T00:34:03.040Z,101014.72
2023-05-19T00:36:31.254Z,101022.03
2023-05-19T00:38:59.288Z,101027.97
2023-05-19T00:41:27.319Z,101033.09
2023-05-19T00:43:55.634Z,101026.28
2023-05-19T00:46:23.856Z,101015.75
2023-05-19T00:48:51.973Z,101020.25
2023-05-19T00:51:20.341Z,101030.72
2023-05-19T00:53:51.165Z,101015.31
2023-05-19T00:56:20.113Z,101019.91
2023-05-19T00:58:50.522Z,101026.69
2023-05-19T01:01:21.842Z,101037.69
2023-05-19T01:03:51.683Z,101029.00
2023-05-19T01:06:21.196Z,101039.38
2023-05-19T01:08:52.061Z,101028.44
2023-05-19T01:11:22.584Z,101022.25
2023-05-19T01:13:50.809Z,101034.72
2023-05-19T01:16:22.749Z,101036.53
2023-05-19T01:19:15.654Z,101030.38
2023-05-19T01:22:02.315Z,101035.97
2023-05-19T01:24:41.859Z,101029.91
2023-05-19T01:27:15.687Z,101043.81
2023-05-19T01:30:05.301Z,101031.81
2023-05-19T01:32:34.933Z,101023.84
2023-05-19T01:35:05.728Z,101026.00
2023-05-19T01:37:34.929Z,101019.31
2023-05-19T01:40:03.089Z,101022.50
2023-05-19T01:42:37.625Z,101021.47
2023-05-19T01:45:10.721Z,101016.72
2023-05-19T01:47:43.141Z,101026.25
2023-05-19T01:50:11.510Z,101022.09
2023-05-19T01:52:39.520Z,101017.97
2023-05-19T01:55:09.734Z,101016.50
2023-05-19T01:57:53.870Z,101019.66
2023-05-19T02:01:01.766Z,101022.50
2023-05-19T02:04:19.008Z,101018.00
2023-05-19T02:07:13.252Z,101018.47
2023-05-19T02:10:02.969Z,101014.06
2023-05-19T02:12:38.238Z,101019.81
2023-05-19T02:15:24.697Z,101011.13
2023-05-19T02:17:55.806Z,101010.78
2023-05-19T02:20:23.918Z,101017.25
2023-05-19T02:25:19.871Z,101016.03
2023-05-19T02:27:49.344Z,101018.91
2023-05-19T02:30:17.345Z,101015.63
2023-05-19T02:32:46.999Z,101016.34
2023-05-19T02:35:15.149Z,101021.25
2023-05-19T02:37:43.699Z,101017.06
2023-05-19T02:40:11.840Z,101016.66
2023-05-19T02:42:39.781Z,101016.28
2023-05-19T02:45:08.555Z,101024.78
2023-05-19T02:47:37.278Z,101014.53
2023-05-19T02:50:06.715Z,101013.63
2023-05-19T02:52:34.848Z,101011.59
2023-05-19T02:55:02.921Z,101006.25
2023-05-19T02:57:31.932Z,101005.44
2023-05-19T03:00:00.004Z,101000.13
2023-05-19T03:02:27.961Z,101009.28
2023-05-19T03:04:56.080Z,101004.44
2023-05-19T03:07:25.514Z,101006.31
2023-05-19T03:09:53.749Z,101008.72
2023-05-19T03:12:22.074Z,100995.84
2023-05-19T03:14:50.281Z,101007.50
2023-05-19T03:17:18.378Z,101012.09
2023-05-19T03:19:46.551Z,101005.44
2023-05-19T03:22:14.619Z,101000.03
2023-05-19T03:24:42.610Z,101000.03
2023-05-19T03:27:12.525Z,100997.88
2023-05-19T03:29:40.883Z,100991.34
2023-05-19T03:32:08.879Z,100998.22
2023-05-19T03:34:37.335Z,101003.41
2023-05-19T03:37:05.304Z,101003.41
2023-05-19T03:39:34.460Z,101002.69
2023-05-19T03:42:02.521Z,100997.69
2023-05-19T03:44:30.903Z,101004.44
2023-05-19T03:47:01.141Z,101012.22
2023-05-19T03:49:55.350Z,101003.44
2023-05-19T03:52:49.649Z,101006.00
2023-05-19T03:55:33.118Z,101015.81
2023-05-19T03:58:01.449Z,101010.69
2023-05-19T04:00:29.619Z,101021.66
2023-05-19T04:02:57.746Z,101018.03
2023-05-19T04:05:25.974Z,101021.19
2023-05-19T04:07:55.007Z,101007.69
2023-05-19T04:10:24.577Z,101030.69
2023-05-19T04:12:52.863Z,101022.41
2023-05-19T04:15:21.539Z,101016.16
2023-05-19T04:17:49.581Z,101028.28
2023-05-19T04:20:17.605Z,101016.66
2023-05-19T04:22:45.493Z,101013.72
2023-05-19T04:25:13.607Z,101016.50
2023-05-19T04:27:41.640Z,101025.44
2023-05-19T04:30:09.955Z,101016.91
2023-05-19T04:32:39.937Z,101030.09
2023-05-19T04:35:11.303Z,101031.97
2023-05-19T04:37:40.826Z,101027.16
2023-05-19T04:40:12.058Z,101029.66
2023-05-19T04:42:42.899Z,101036.72
2023-05-19T04:45:14.200Z,101034.34
2023-05-19T04:47:47.013Z,101031.63
2023-05-19T04:50:16.639Z,101040.59
2023-05-19T04:52:47.890Z,101035.66
2023-05-19T04:55:17.341Z,101030.31
2023-05-19T04:57:46.103Z,101030.25
2023-05-19T05:00:14.804Z,101031.81
2023-05-19T05:02:53.545Z,101038.78
2023-05-19T05:05:22.815Z,101039.50
2023-05-19T05:07:54.298Z,101030.69
2023-05-19T05:10:27.148Z,101046.31
2023-05-19T05:12:55.702Z,101042.88
2023-05-19T05:15:24.575Z,101044.19
2023-05-19T05:17:53.096Z,101041.50
2023-05-19T05:20:22.656Z,101045.78
2023-05-19T05:22:51.564Z,101039.44
2023-05-19T05:25:20.783Z,101039.94
2023-05-19T05:27:49.947Z,101042.19
2023-05-19T05:30:19.733Z,101042.84
2023-05-19T05:32:48.388Z,101040.56
2023-05-19T05:35:31.085Z,101040.03
2023-05-19T05:38:02.113Z,101042.81
2023-05-19T05:40:30.469Z,101041.50
2023-05-19T05:43:01.388Z,101038.84
2023-05-19T05:45:33.261Z,101024.06
2023-05-19T05:48:02.961Z,101034.28
2023-05-19T05:50:32.586Z,101038.16
2023-05-19T05:53:01.721Z,101044.63
2023-05-19T05:55:30.346Z,101033.50
2023-05-19T05:58:02.447Z,101049.38
2023-05-19T06:00:31.061Z,101051.34
2023-05-19T06:02:59.610Z,101050.09
2023-05-19T06:05:27.758Z,101053.75
2023-05-19T06:07:56.340Z,101036.63
2023-05-19T06:10:28.670Z,101043.28
2023-05-19T06:12:57.132Z,101054.53
2023-05-19T06:15:26.521Z,101052.59
2023-05-19T06:18:20.883Z,101051.53
2023-05-19T06:20:49.606Z,101052.19
2023-05-19T06:23:17.718Z,101051.41
2023-05-19T06:25:46.329Z,101049.94
2023-05-19T06:28:15.012Z,101062.50
2023-05-19T06:30:42.957Z,101061.19
2023-05-19T06:33:21.458Z,101063.03
2023-05-19T06:35:49.870Z,101059.38
2023-05-19T06:38:18.281Z,101069.41
2023-05-19T06:40:46.243Z,101067.59
2023-05-19T06:43:14.990Z,101071.19
2023-05-19T06:45:54.772Z,101074.81
2023-05-19T06:48:24.200Z,101079.63
2023-05-19T06:50:52.488Z,101080.41
2023-05-19T06:53:24.055Z,101073.44
2023-05-19T06:55:58.826Z,101076.31
2023-05-19T06:58:29.120Z,101082.81
2023-05-19T07:00:58.081Z,101077.69
2023-05-19T07:03:31.341Z,101086.59
2023-05-19T07:06:00.359Z,101083.66
2023-05-19T07:08:29.370Z,101088.91
2023-05-19T07:11:00.187Z,101088.28
2023-05-19T07:13:28.957Z,101090.94
2023-05-19T07:15:57.550Z,101074.88
2023-05-19T07:18:27.129Z,101073.69
2023-05-19T07:20:55.293Z,101082.38
2023-05-19T07:23:23.194Z,101076.63
2023-05-19T07:25:58.010Z,101075.38
2023-05-19T07:28:26.051Z,101075.16
2023-05-19T07:30:54.005Z,101073.16
2023-05-19T07:33:22.042Z,101077.06
2023-05-19T07:35:49.957Z,101082.84
2023-05-19T07:38:17.831Z,101077.84
2023-05-19T07:40:45.722Z,101086.16
2023-05-19T07:43:13.769Z,101085.16
2023-05-19T07:45:41.799Z,101082.72
2023-05-19T07:48:09.825Z,101085.25
2023-05-19T07:50:37.843Z,101087.78
2023-05-19T07:53:05.696Z,101093.50
2023-05-19T07:55:33.663Z,101087.25
2023-05-19T07:58:01.655Z,101088.19
2023-05-19T08:00:29.700Z,101098.44
2023-05-19T08:02:57.770Z,101091.28
2023-05-19T08:05:26.294Z,101087.56
2023-05-19T08:07:54.168Z,101091.16
2023-05-19T08:10:22.191Z,101092.59
2023-05-19T08:12:50.119Z,101087.13
2023-05-19T08:15:19.217Z,101084.34
2023-05-19T08:17:47.203Z,101091.53
2023-05-19T08:20:15.253Z,101089.81
2023-05-19T08:22:43.168Z,101079.72
2023-05-19T08:25:11.963Z,101084.31
2023-05-19T08:27:39.867Z,101104.81
2023-05-19T08:30:08.340Z,101089.47
2023-05-19T08:32:36.555Z,101092.78
2023-05-19T08:35:04.700Z,101095.63
2023-05-19T08:37:34.094Z,101089.59
2023-05-19T08:40:04.765Z,101090.50
2023-05-19T08:42:34.057Z,101087.78
2023-05-19T08:45:03.444Z,101079.06
2023-05-19T08:47:33.352Z,101092.66
2023-05-19T08:50:07.813Z,101096.97
2023-05-19T08:52:52.513Z,101113.09
2023-05-19T08:55:31.434Z,101091.19
2023-05-19T08:58:01.902Z,101092.28
2023-05-19T09:00:30.668Z,101101.13
2023-05-19T09:03:16.866Z,101105.66
2023-05-19T09:05:47.051Z,101092.16
2023-05-19T09:08:15.182Z,101096.13
2023-05-19T09:10:43.022Z,101092.31
2023-05-19T09:13:11.039Z,101111.00
2023-05-19T09:15:41.486Z,101101.44
2023-05-19T09:18:10.724Z,101096.69
2023-05-19T09:20:40.832Z,101109.72
2023-05-19T09:23:16.717Z,101102.97
2023-05-19T09:25:52.051Z,101105.00
2023-05-19T09:28:30.757Z,101099.25
2023-05-19T09:31:09.443Z,101106.66
2023-05-19T09:33:45.590Z,101107.25
2023-05-19T09:36:14.360Z,101105.16
2023-05-19T09:38:42.797Z,101114.88
2023-05-19T09:41:11.058Z,101123.56
2023-05-19T09:43:38.958Z,101117.81
2023-05-19T09:46:11.868Z,101113.25
2023-05-19T09:48:40.838Z,101107.16
2023-05-19T09:51:11.065Z,101108.44
2023-05-19T09:53:39.507Z,101109.25
2023-05-19T09:56:08.982Z,101098.06
2023-05-19T09:58:37.876Z,101093.16
2023-05-19T10:01:06.686Z,101107.00
2023-05-19T10:03:35.213Z,101106.47
2023-05-19T10:06:05.760Z,101109.16
2023-05-19T10:08:34.418Z,101104.84
2023-05-19T10:11:03.436Z,101110.53
2023-05-19T10:13:32.282Z,101107.47
2023-05-19T10:16:01.072Z,101108.56
2023-05-19T10:18:30.933Z,101096.50
2023-05-19T10:21:00.801Z,101101.13
2023-05-19T10:23:28.853Z,101097.34
2023-05-19T10:26:00.061Z,101093.44
2023-05-19T10:28:37.535Z,101111.03
2023-05-19T10:31:09.799Z,101106.94
2023-05-19T10:34:07.870Z,101089.00
2023-05-19T10:36:48.467Z,101100.75
2023-05-19T10:39:38.246Z,101101.22
2023-05-19T10:42:37.061Z,101108.28
2023-05-19T10:45:20.436Z,101103.59
2023-05-19T10:47:51.671Z,101100.59
2023-05-19T10:50:20.993Z,101099.53
2023-05-19T10:52:56.608Z,101078.09
2023-05-19T10:55:47.955Z,101090.66
2023-05-19T10:58:16.126Z,101075.38
2023-05-19T11:00:44.075Z,101080.09
2023-05-19T11:03:14.088Z,101087.94
2023-05-19T11:05:45.765Z,101080.91
2023-05-19T11:08:13.805Z,101080.09
2023-05-19T11:10:46.447Z,101077.09
2023-05-19T11:13:23.448Z,101092.13
2023-05-19T11:15:52.276Z,101077.16
2023-05-19T11:18:21.550Z,101077.47
2023-05-19T11:20:58.250Z,101074.84
2023-05-19T11:23:26.506Z,101073.53
2023-05-19T11:25:54.653Z,101072.09
2023-05-19T11:28:28.442Z,101076.53
2023-05-19T11:30:59.361Z,101079.97
2023-05-19T11:33:27.606Z,101074.59
2023-05-19T11:36:00.382Z,101068.72
2023-05-19T11:38:30.497Z,101060.84
2023-05-19T11:40:58.796Z,101067.25
2023-05-19T11:43:27.060Z,101061.88
2023-05-19T11:45:55.347Z,101059.13
2023-05-19T11:48:24.854Z,101057.19
2023-05-19T11:50:53.102Z,101070.59
2023-05-19T11:53:21.235Z,101052.00
2023-05-19T11:55:49.823Z,101055.03
2023-05-19T11:58:18.070Z,101053.69
2023-05-19T12:00:48.592Z,101053.47
2023-05-19T12:03:22.194Z,101059.16
2023-05-19T12:05:50.606Z,101057.41
2023-05-19T12:08:19.046Z,101051.84
2023-05-19T12:10:53.192Z,101058.41
2023-05-19T12:13:22.909Z,101058.22
2023-05-19T12:15:53.193Z,101058.41
2023-05-19T12:18:21.621Z,101058.56
2023-05-19T12:20:50.042Z,101050.72
2023-05-19T12:23:18.376Z,101049.91
2023-05-19T12:25:46.523Z,101053.19
2023-05-19T12:28:16.785Z,101051.03
2023-05-19T12:30:48.645Z,101040.94
2023-05-19T12:33:17.283Z,101046.66
2023-05-19T12:35:47.962Z,101048.59
2023-05-19T12:38:16.578Z,101057.28
2023-05-19T12:40:44.738Z,101054.47
2023-05-19T12:43:25.527Z,101052.06
2023-05-19T12:45:53.619Z,101056.91
2023-05-19T12:48:24.756Z,101052.03
2023-05-19T12:50:54.583Z,101050.03
2023-05-19T12:53:22.848Z,101048.84
2023-05-19T12:55:53.080Z,101041.72
2023-05-19T12:58:23.470Z,101042.09
2023-05-19T13:00:52.979Z,101048.06
2023-05-19T13:03:22.348Z,101039.47
2023-05-19T13:05:51.284Z,101036.69
2023-05-19T13:08:21.828Z,101049.41
2023-05-19T13:10:50.115Z,101033.09
2023-05-19T13:13:18.710Z,101044.69
2023-05-19T13:15:49.403Z,101032.63
2023-05-19T13:18:17.806Z,101038.34
2023-05-19T13:20:47.482Z,101040.63
2023-05-19T13:23:16.827Z,101031.78
2023-05-19T13:25:45.081Z,101040.25
2023-05-19T13:28:14.176Z,101024.28
2023-05-19T13:30:44.998Z,101044.06
2023-05-19T13:33:13.520Z,101043.69
2023-05-19T13:35:41.993Z,101039.94
2023-05-19T13:38:11.059Z,101041.25
2023-05-19T13:40:40.522Z,101036.00
2023-05-19T13:43:10.201Z,101033.75
2023-05-19T13:45:38.896Z,101043.22
2023-05-19T13:48:07.827Z,101043.81
2023-05-19T13:50:35.956Z,101043.34
2023-05-19T13:53:04.241Z,101045.44
2023-05-19T13:55:33.449Z,101034.81
2023-05-19T13:58:01.901Z,101042.09
2023-05-19T14:00:32.264Z,101038.91
2023-05-19T14:03:01.193Z,101039.25
2023-05-19T14:05:31.254Z,101048.03
2023-05-19T14:08:01.304Z,101052.25
2023-05-19T14:10:29.296Z,101038.66
2023-05-19T14:15:32.543Z,101043.56
2023-05-19T14:18:00.488Z,101043.66
2023-05-19T14:20:29.400Z,101039.75
2023-05-19T14:22:57.657Z,101049.84
2023-05-19T14:25:25.657Z,101045.91
2023-05-19T14:27:53.596Z,101046.38
2023-05-19T14:30:21.495Z,101047.56
2023-05-19T14:32:49.411Z,101040.00
2023-05-19T14:35:17.466Z,101046.19
2023-05-19T14:37:45.462Z,101044.34
2023-05-19T14:40:13.609Z,101046.34
2023-05-19T14:42:41.712Z,101049.13
2023-05-19T14:45:10.199Z,101046.06
2023-05-19T14:47:38.125Z,101048.22
2023-05-19T14:50:06.459Z,101049.44
2023-05-19T14:52:34.554Z,101046.69
2023-05-19T14:55:02.503Z,101055.81
2023-05-19T14:57:30.803Z,101050.84
2023-05-19T14:59:58.711Z,101054.97
2023-05-19T15:02:28.864Z,101056.41
2023-05-19T15:04:57.714Z,101054.22
2023-05-19T15:07:25.581Z,101050.41
2023-05-19T15:09:53.990Z,101051.72
2023-05-19T15:12:22.223Z,101058.09
2023-05-19T15:14:50.307Z,101039.03
2023-05-19T15:17:18.428Z,101040.22
2023-05-19T15:19:46.481Z,101038.94
2023-05-19T15:22:14.606Z,101043.69
2023-05-19T15:24:42.519Z,101042.38
2023-05-19T15:27:10.806Z,101036.31
2023-05-19T15:29:38.809Z,101035.56
2023-05-19T15:32:07.340Z,101035.47
2023-05-19T15:34:35.612Z,101028.78
2023-05-19T15:37:03.429Z,101025.25
2023-05-19T15:39:31.586Z,101023.44
2023-05-19T15:41:59.803Z,101032.50
2023-05-19T15:44:29.022Z,101030.38
2023-05-19T15:46:57.078Z,101022.69
2023-05-19T15:49:25.503Z,101025.41
2023-05-19T15:51:53.466Z,101008.91
2023-05-19T15:54:21.473Z,101009.63
2023-05-19T15:56:49.508Z,101014.72
2023-05-19T15:59:17.581Z,101006.84
2023-05-19T16:01:45.685Z,101016.00
2023-05-19T16:04:14.389Z,101011.63
2023-05-19T16:06:42.958Z,101002.53
2023-05-19T16:09:10.976Z,101001.69
2023-05-19T16:11:38.947Z,100993.44
2023-05-19T16:14:08.103Z,101007.94
2023-05-19T16:16:37.568Z,100997.38
2023-05-19T16:19:05.683Z,100988.94
2023-05-19T16:21:33.696Z,100990.75
2023-05-19T16:24:01.662Z,100987.53
2023-05-19T16:26:29.698Z,100986.00
2023-05-19T16:28:57.598Z,100987.31
2023-05-19T16:31:25.616Z,100983.41
2023-05-19T16:33:53.632Z,100977.84
2023-05-19T16:36:22.979Z,100976.84
2023-05-19T16:38:50.895Z,100973.97
2023-05-19T16:41:18.808Z,100979.50
2023-05-19T16:43:47.108Z,100971.38
2023-05-19T16:46:15.031Z,100966.03
2023-05-19T16:48:42.955Z,100967.66
2023-05-19T16:51:10.961Z,100957.56
2023-05-19T16:53:39.904Z,100955.69
2023-05-19T16:56:08.347Z,100952.75
2023-05-19T16:58:36.550Z,100955.47
2023-05-19T17:01:04.716Z,100951.84
2023-05-19T17:03:32.814Z,100946.09
2023-05-19T17:06:01.162Z,100948.59
2023-05-19T17:08:29.123Z,100952.41
2023-05-19T17:10:57.264Z,100948.59
2023-05-19T17:13:25.237Z,100951.31
2023-05-19T17:15:53.217Z,100953.91
2023-05-19T17:18:21.330Z,100958.47
2023-05-19T17:20:49.257Z,100959.44
2023-05-19T17:23:17.381Z,100967.69
2023-05-19T17:25:45.355Z,100959.66
2023-05-19T17:28:13.312Z,100964.53
2023-05-19T17:30:41.634Z,100949.06
2023-05-19T17:33:09.627Z,100958.38
2023-05-19T17:35:37.724Z,100957.09
2023-05-19T17:38:05.758Z,100959.00
2023-05-19T17:40:35.930Z,100950.22
2023-05-19T17:43:04.017Z,100954.31
2023-05-19T17:45:32.294Z,100950.03
2023-05-19T17:48:00.422Z,100958.38
2023-05-19T17:50:28.756Z,100950.31
2023-05-19T17:52:56.952Z,100959.38
2023-05-19T17:55:29.893Z,100961.09
2023-05-19T17:57:58.324Z,100958.28
2023-05-19T18:00:26.648Z,100961.81
2023-05-19T18:02:57.139Z,100966.41
2023-05-19T18:05:25.590Z,100966.81
2023-05-19T18:08:18.705Z,100969.44
2023-05-19T18:10:48.747Z,100970.97
2023-05-19T18:13:16.679Z,100966.94
2023-05-19T18:15:45.018Z,100967.72
2023-05-19T18:18:13.143Z,100976.75
2023-05-19T18:20:46.131Z,100969.53
2023-05-19T18:23:14.458Z,100970.50
2023-05-19T18:25:49.598Z,100972.50
2023-05-19T18:28:17.607Z,100966.84
2023-05-19T18:30:45.773Z,100972.56
2023-05-19T18:33:14.772Z,100978.78
2023-05-19T18:35:42.715Z,100976.91
2023-05-19T18:38:10.594Z,100980.28
2023-05-19T18:40:39.040Z,100976.03
2023-05-19T18:43:06.932Z,100979.38
2023-05-19T18:45:34.794Z,100982.94
2023-05-19T18:48:02.806Z,100976.56
2023-05-19T18:50:30.890Z,100978.47
2023-05-19T18:52:58.897Z,100976.41
2023-05-19T18:55:27.114Z,100981.66
2023-05-19T18:57:55.300Z,100977.25
2023-05-19T19:00:24.696Z,100983.09
2023-05-19T19:02:52.733Z,100986.78
2023-05-19T19:05:21.870Z,100984.69
2023-05-19T19:07:50.438Z,100992.09
2023-05-19T19:10:18.485Z,100984.94
2023-05-19T19:12:46.620Z,100988.84
2023-05-19T19:15:15.735Z,100990.59
2023-05-19T19:17:46.597Z,100992.75
2023-05-19T19:20:15.647Z,100994.78
2023-05-19T19:22:43.988Z,100991.72
2023-05-19T19:25:11.961Z,100988.22
2023-05-19T19:27:44.679Z,101003.16
2023-05-19T19:30:13.471Z,101002.47
2023-05-19T19:32:41.451Z,101004.81
2023-05-19T19:35:09.816Z,101003.81
2023-05-19T19:37:37.690Z,100997.38
2023-05-19T19:40:06.719Z,100999.91
2023-05-19T19:42:34.803Z,100998.31
2023-05-19T19:45:03.466Z,101005.84
2023-05-19T19:47:32.847Z,101004.69
2023-05-19T19:50:05.560Z,101003.47
2023-05-19T19:52:36.358Z,101016.31
2023-05-19T19:55:09.230Z,101008.00
2023-05-19T19:57:38.557Z,101007.81
2023-05-19T20:00:11.047Z,101012.16
2023-05-19T20:03:02.652Z,101013.47
2023-05-19T20:05:32.818Z,101007.75
2023-05-19T20:08:03.628Z,101012.47
2023-05-19T20:10:33.397Z,101001.81
2023-05-19T20:13:02.342Z,101001.94
2023-05-19T20:15:30.385Z,101005.19
2023-05-19T20:17:58.637Z,101003.94
2023-05-19T20:20:27.484Z,100998.31
2023-05-19T20:22:56.457Z,100997.53
2023-05-19T20:25:26.008Z,101004.41
2023-05-19T20:27:54.161Z,101004.81
2023-05-19T20:30:22.294Z,101004.16
2023-05-19T20:32:50.529Z,101004.25
2023-05-19T20:35:18.676Z,100993.69
2023-05-19T20:37:48.182Z,100998.72
2023-05-19T20:40:17.333Z,100997.91
2023-05-19T20:42:46.939Z,100993.81
2023-05-19T20:45:16.149Z,100994.97
2023-05-19T20:47:45.261Z,100995.88
2023-05-19T20:50:13.594Z,100997.41
2023-05-19T20:52:42.039Z,100991.28
2023-05-19T20:55:11.451Z,100995.25
2023-05-19T20:57:40.229Z,100986.56
2023-05-19T21:00:09.101Z,100981.97
2023-05-19T21:02:38.137Z,100985.84
2023-05-19T21:05:06.758Z,100982.25
2023-05-19T21:07:34.753Z,100992.81
2023-05-19T21:10:02.823Z,100990.84
2023-05-19T21:12:34.370Z,100983.38
2023-05-19T21:15:03.842Z,100979.09
2023-05-19T21:17:32.364Z,100990.03
2023-05-19T21:20:00.808Z,100986.25
2023-05-19T21:22:28.706Z,100976.97
2023-05-19T21:24:57.298Z,100979.72
2023-05-19T21:27:25.235Z,100980.22
2023-05-19T21:29:54.619Z,100980.72
2023-05-19T21:32:22.707Z,100976.34
2023-05-19T21:34:51.352Z,100977.38
2023-05-19T21:37:20.600Z,100969.78
2023-05-19T21:39:49.156Z,100966.50
2023-05-19T21:42:17.629Z,100969.25
2023-05-19T21:44:46.329Z,100975.59
2023-05-19T21:47:14.564Z,100972.13
2023-05-19T21:49:42.788Z,100969.47
2023-05-19T21:52:11.409Z,100973.88
2023-05-19T21:54:39.627Z,100967.31
2023-05-19T21:57:07.657Z,100973.47
2023-05-19T21:59:35.566Z,100973.88
2023-05-19T22:02:05.167Z,100971.50
2023-05-19T22:04:34.024Z,100976.03
2023-05-19T22:07:02.328Z,100981.75
2023-05-19T22:09:30.512Z,100979.72
2023-05-19T22:11:58.443Z,100977.97
2023-05-19T22:14:26.861Z,100977.66
2023-05-19T22:16:55.197Z,100985.97
2023-05-19T22:19:23.420Z,100979.94
2023-05-19T22:22:01.835Z,100975.41
2023-05-19T22:24:34.066Z,100978.69
2023-05-19T22:27:02.608Z,100977.06
2023-05-19T22:29:30.772Z,100981.75
2023-05-19T22:31:59.056Z,100979.59
2023-05-19T22:34:27.108Z,100975.00
2023-05-19T22:36:55.323Z,100967.84
2023-05-19T22:39:23.244Z,100970.59
2023-05-19T22:41:51.504Z,100977.13
2023-05-19T22:44:19.790Z,100973.88
2023-05-19T22:46:47.843Z,100968.84
2023-05-19T22:49:15.774Z,100968.44
2023-05-19T22:51:43.731Z,100974.59
2023-05-19T22:54:11.688Z,100965.59
2023-05-19T22:56:39.693Z,100971.75
2023-05-19T22:59:07.823Z,100962.53
2023-05-19T23:01:35.981Z,100959.28
2023-05-19T23:04:04.245Z,100965.88
2023-05-19T23:06:32.440Z,100954.63
2023-05-19T23:09:04.589Z,100954.84
2023-05-19T23:11:32.686Z,100953.06
2023-05-19T23:14:00.617Z,100945.41
2023-05-19T23:16:28.689Z,100939.75
2023-05-19T23:18:57.025Z,100945.25
2023-05-19T23:21:25.193Z,100939.75
2023-05-19T23:23:53.341Z,100931.78
2023-05-19T23:26:21.568Z,100923.72
2023-05-19T23:28:49.909Z,100934.25
2023-05-19T23:31:17.952Z,100923.31
2023-05-19T23:33:46.217Z,100928.53
2023-05-19T23:36:14.253Z,100928.50
2023-05-19T23:38:42.275Z,100921.75
2023-05-19T23:41:10.365Z,100921.19
2023-05-19T23:43:38.410Z,100922.78
2023-05-19T23:46:06.837Z,100924.63
2023-05-19T23:48:35.876Z,100926.34
2023-05-19T23:51:03.957Z,100918.41
2023-05-19T23:53:32.209Z,100927.81
2023-05-19T23:56:00.381Z,100919.81
2023-05-19T23:58:28.514Z,100918.25
